SBOSBO ISB / OPIS
Speedbird OnlineSpeedbird Online ISB / OPIS

New Islamabad International Airport
01:03 22°C

Location Islamabad, Pakistan
Latitude: 33.560713
Longitude: 72.851613
Web Airport Website | Wikipedia
Altitude 502 Meter / 1646 Feet
Distance 6,012 KM / 3,736 Miles
from London.
Time Zone UTC +5 hours (Asia/Karachi)
Codes IATA: ISB
ICAO: OPIS
Currency £1 equals PKR 261.43
Runways
RunwayLength (m)Surface
10L3658Asphalt
10R3658Asphalt
28L3658Asphalt
28R3658Asphalt
Radio
TypeDescriptionFrequency
APPIslamabad Approach121.65
APPIslamabad Approach124.65
DEPIslamabad Departure118.55
DEPIslamabad Departure119.65
GMC123.05
GMC125.15
GroundIslamabad Ground122.95
GroundIslamabad ZGround130.6
TowerIslamabad Tower122.15
TowerIslamabad Tower123.255
Live ATC
METAR OPIS 241930Z 13008KT 5000 SCT040 BKN100 21/20 Q1005 TEMPO 130 15G30KT 3000 TSRA FEW030CB
TAF TAF OPIS 241545Z 2418/2524 12010KT 5000 HZ FEW040 SCT100 PROB30 TEMPO 2421/2501 09008G18KT 3000 -TSRA FEW030CB SCT040 BKN100 TEMPO 2507/2513 12010G25KT 3000 -TSRA FEW030CB SCT040 BKN100 BECMG 2520/2522 09015G30KT 2000 -TSRA FEW030CB SCT040 BKN100
Weather As Of 25 Sep 2022 01:03
Description Few clouds
Wind 17 km/h from South-East (119°)
Cloud Cover 13%
Precipitation Rain: none, Snow: none
Sunrise 05:58
Sunset 18:02
Lounges Airport Airline Lounge, Departure
Airline Lounge , International Terminal
Rotations During the last 90 days there were
23 flights from LHR
22 flights to LHR


© 2017-2022 Speedbird Online